sensor_id;sensor_type;location;lat;lon;timestamp;pressure;altitude;pressure_sealevel;temperature;humidity
85119;BME280;75469;47.654;10.494;2024-01-11T00:01:23;92109.38;;;-7.83;87.58
85119;BME280;75469;47.654;10.494;2024-01-11T00:03:48;92094.78;;;-7.82;87.35
85119;BME280;75469;47.654;10.494;2024-01-11T00:06:14;92094.69;;;-7.60;87.59
85119;BME280;75469;47.654;10.494;2024-01-11T00:08:39;92095.91;;;-7.36;88.54
85119;BME280;75469;47.654;10.494;2024-01-11T00:11:05;92108.25;;;-7.32;88.33
85119;BME280;75469;47.654;10.494;2024-01-11T00:13:31;92092.19;;;-7.50;87.62
85119;BME280;75469;47.654;10.494;2024-01-11T00:15:56;92099.19;;;-7.45;88.18
85119;BME280;75469;47.654;10.494;2024-01-11T00:18:22;92099.69;;;-7.43;88.25
85119;BME280;75469;47.654;10.494;2024-01-11T00:20:47;92104.16;;;-7.33;88.55
85119;BME280;75469;47.654;10.494;2024-01-11T00:23:13;92108.25;;;-7.32;88.58
85119;BME280;75469;47.654;10.494;2024-01-11T00:25:38;92097.22;;;-7.33;88.50
85119;BME280;75469;47.654;10.494;2024-01-11T00:28:04;92104.06;;;-7.44;87.51
85119;BME280;75469;47.654;10.494;2024-01-11T00:30:29;92105.47;;;-7.63;87.01
85119;BME280;75469;47.654;10.494;2024-01-11T00:32:55;92111.69;;;-7.86;86.80
85119;BME280;75469;47.654;10.494;2024-01-11T00:35:20;92099.94;;;-7.77;87.14
85119;BME280;75469;47.654;10.494;2024-01-11T00:37:46;92095.34;;;-7.75;86.98
85119;BME280;75469;47.654;10.494;2024-01-11T00:40:11;92107.44;;;-8.02;86.67
85119;BME280;75469;47.654;10.494;2024-01-11T00:42:37;92104.13;;;-7.98;87.90
85119;BME280;75469;47.654;10.494;2024-01-11T00:45:03;92110.78;;;-8.02;87.24
85119;BME280;75469;47.654;10.494;2024-01-11T00:47:29;92107.94;;;-8.00;87.84
85119;BME280;75469;47.654;10.494;2024-01-11T00:49:54;92109.47;;;-8.05;87.37
85119;BME280;75469;47.654;10.494;2024-01-11T00:52:20;92109.53;;;-7.94;87.27
85119;BME280;75469;47.654;10.494;2024-01-11T00:54:46;92113.13;;;-8.22;86.13
85119;BME280;75469;47.654;10.494;2024-01-11T00:57:12;92112.72;;;-8.41;86.31
85119;BME280;75469;47.654;10.494;2024-01-11T00:59:37;92115.13;;;-8.30;87.07
85119;BME280;75469;47.654;10.494;2024-01-11T01:02:04;92118.06;;;-8.16;87.31
85119;BME280;75469;47.654;10.494;2024-01-11T01:04:30;92121.03;;;-8.02;86.89
85119;BME280;75469;47.654;10.494;2024-01-11T01:06:55;92119.78;;;-8.21;86.71
85119;BME280;75469;47.654;10.494;2024-01-11T01:09:21;92116.25;;;-8.15;86.89
85119;BME280;75469;47.654;10.494;2024-01-11T01:11:46;92121.34;;;-8.47;86.27
85119;BME280;75469;47.654;10.494;2024-01-11T01:14:12;92127.50;;;-8.70;85.35
85119;BME280;75469;47.654;10.494;2024-01-11T01:16:37;92124.16;;;-8.71;85.24
85119;BME280;75469;47.654;10.494;2024-01-11T01:19:03;92124.53;;;-9.01;84.55
85119;BME280;75469;47.654;10.494;2024-01-11T01:21:29;92127.09;;;-9.01;85.54
85119;BME280;75469;47.654;10.494;2024-01-11T01:23:54;92124.00;;;-9.03;85.19
85119;BME280;75469;47.654;10.494;2024-01-11T01:26:20;92128.66;;;-9.00;85.38
85119;BME280;75469;47.654;10.494;2024-01-11T01:28:45;92127.56;;;-8.87;85.08
85119;BME280;75469;47.654;10.494;2024-01-11T01:31:11;92128.84;;;-8.85;85.72
85119;BME280;75469;47.654;10.494;2024-01-11T01:33:37;92129.63;;;-8.84;85.20
85119;BME280;75469;47.654;10.494;2024-01-11T01:36:02;92124.38;;;-8.94;84.54
85119;BME280;75469;47.654;10.494;2024-01-11T01:38:28;92127.78;;;-9.06;84.34
85119;BME280;75469;47.654;10.494;2024-01-11T01:40:55;92132.03;;;-9.16;84.70
85119;BME280;75469;47.654;10.494;2024-01-11T01:43:21;92128.44;;;-9.15;85.31
85119;BME280;75469;47.654;10.494;2024-01-11T01:45:47;92133.06;;;-8.95;85.26
85119;BME280;75469;47.654;10.494;2024-01-11T01:48:12;92140.75;;;-8.95;85.25
85119;BME280;75469;47.654;10.494;2024-01-11T01:50:38;92140.47;;;-8.99;84.94
85119;BME280;75469;47.654;10.494;2024-01-11T01:53:04;92139.44;;;-8.98;84.03
85119;BME280;75469;47.654;10.494;2024-01-11T01:55:30;92144.19;;;-8.68;86.75
85119;BME280;75469;47.654;10.494;2024-01-11T01:57:56;92145.91;;;-8.73;85.76
85119;BME280;75469;47.654;10.494;2024-01-11T02:00:22;92138.13;;;-9.01;84.47
85119;BME280;75469;47.654;10.494;2024-01-11T02:02:50;92140.78;;;-9.12;84.44
85119;BME280;75469;47.654;10.494;2024-01-11T02:05:17;92133.72;;;-9.22;84.55
85119;BME280;75469;47.654;10.494;2024-01-11T02:07:44;92140.66;;;-9.23;84.26
85119;BME280;75469;47.654;10.494;2024-01-11T02:10:10;92139.47;;;-9.15;84.54
85119;BME280;75469;47.654;10.494;2024-01-11T02:12:36;92136.91;;;-9.15;84.12
85119;BME280;75469;47.654;10.494;2024-01-11T02:15:05;92139.94;;;-9.18;83.90
85119;BME280;75469;47.654;10.494;2024-01-11T02:17:31;92139.63;;;-9.22;84.22
85119;BME280;75469;47.654;10.494;2024-01-11T02:19:57;92147.22;;;-9.10;85.25
85119;BME280;75469;47.654;10.494;2024-01-11T02:22:29;92142.84;;;-8.92;85.72
85119;BME280;75469;47.654;10.494;2024-01-11T02:24:57;92139.31;;;-9.08;84.91
85119;BME280;75469;47.654;10.494;2024-01-11T02:27:23;92138.31;;;-9.24;84.23
85119;BME280;75469;47.654;10.494;2024-01-11T02:29:49;92133.19;;;-9.24;83.77
85119;BME280;75469;47.654;10.494;2024-01-11T02:32:14;92130.16;;;-9.21;84.39
85119;BME280;75469;47.654;10.494;2024-01-11T02:34:41;92138.03;;;-9.06;85.35
85119;BME280;75469;47.654;10.494;2024-01-11T02:37:07;92130.91;;;-9.04;85.84
85119;BME280;75469;47.654;10.494;2024-01-11T02:39:32;92136.78;;;-8.86;86.04
85119;BME280;75469;47.654;10.494;2024-01-11T02:41:59;92134.63;;;-8.94;85.90
85119;BME280;75469;47.654;10.494;2024-01-11T02:44:25;92135.16;;;-8.92;86.23
85119;BME280;75469;47.654;10.494;2024-01-11T02:46:50;92141.75;;;-8.97;86.00
85119;BME280;75469;47.654;10.494;2024-01-11T02:49:16;92129.00;;;-8.91;86.57
85119;BME280;75469;47.654;10.494;2024-01-11T02:51:42;92131.41;;;-8.85;86.71
85119;BME280;75469;47.654;10.494;2024-01-11T02:54:07;92131.97;;;-8.61;86.93
85119;BME280;75469;47.654;10.494;2024-01-11T02:56:33;92125.41;;;-8.24;87.11
85119;BME280;75469;47.654;10.494;2024-01-11T02:58:58;92135.38;;;-8.28;86.32
85119;BME280;75469;47.654;10.494;2024-01-11T03:01:24;92131.81;;;-8.27;86.35
85119;BME280;75469;47.654;10.494;2024-01-11T03:03:49;92127.50;;;-8.21;86.48
85119;BME280;75469;47.654;10.494;2024-01-11T03:06:15;92118.19;;;-8.28;86.72
85119;BME280;75469;47.654;10.494;2024-01-11T03:08:43;92115.13;;;-8.30;87.11
85119;BME280;75469;47.654;10.494;2024-01-11T03:11:08;92115.00;;;-8.40;86.94
85119;BME280;75469;47.654;10.494;2024-01-11T03:13:34;92123.63;;;-8.51;86.66
85119;BME280;75469;47.654;10.494;2024-01-11T03:15:59;92117.38;;;-8.60;86.91
85119;BME280;75469;47.654;10.494;2024-01-11T03:18:25;92115.34;;;-8.97;84.72
85119;BME280;75469;47.654;10.494;2024-01-11T03:20:50;92107.25;;;-9.11;85.22
85119;BME280;75469;47.654;10.494;2024-01-11T03:23:16;92116.13;;;-8.97;85.18
85119;BME280;75469;47.654;10.494;2024-01-11T03:25:41;92108.28;;;-8.90;84.73
85119;BME280;75469;47.654;10.494;2024-01-11T03:28:07;92106.13;;;-8.98;84.32
85119;BME280;75469;47.654;10.494;2024-01-11T03:30:33;92102.50;;;-9.02;84.32
85119;BME280;75469;47.654;10.494;2024-01-11T03:32:58;92108.09;;;-9.05;84.92
85119;BME280;75469;47.654;10.494;2024-01-11T03:35:24;92111.84;;;-8.91;85.64
85119;BME280;75469;47.654;10.494;2024-01-11T03:37:49;92104.72;;;-9.06;85.49
85119;BME280;75469;47.654;10.494;2024-01-11T03:40:18;92105.00;;;-9.07;85.70
85119;BME280;75469;47.654;10.494;2024-01-11T03:42:44;92110.97;;;-9.18;84.61
85119;BME280;75469;47.654;10.494;2024-01-11T03:45:09;92114.09;;;-9.33;83.54
85119;BME280;75469;47.654;10.494;2024-01-11T03:47:35;92107.28;;;-9.45;82.91
85119;BME280;75469;47.654;10.494;2024-01-11T03:50:00;92106.66;;;-9.52;82.82
85119;BME280;75469;47.654;10.494;2024-01-11T03:52:26;92103.41;;;-9.64;81.90
85119;BME280;75469;47.654;10.494;2024-01-11T03:54:51;92116.09;;;-9.18;83.03
85119;BME280;75469;47.654;10.494;2024-01-11T03:57:17;92116.28;;;-9.25;82.60
85119;BME280;75469;47.654;10.494;2024-01-11T03:59:43;92112.84;;;-9.48;82.60
85119;BME280;75469;47.654;10.494;2024-01-11T04:02:09;92102.72;;;-9.76;81.77
85119;BME280;75469;47.654;10.494;2024-01-11T04:04:34;92098.59;;;-9.94;82.70
85119;BME280;75469;47.654;10.494;2024-01-11T04:07:00;92111.13;;;-10.09;82.15
85119;BME280;75469;47.654;10.494;2024-01-11T04:09:25;92108.25;;;-10.13;83.38
85119;BME280;75469;47.654;10.494;2024-01-11T04:11:51;92107.25;;;-10.12;82.33
85119;BME280;75469;47.654;10.494;2024-01-11T04:14:16;92108.16;;;-10.18;82.45
85119;BME280;75469;47.654;10.494;2024-01-11T04:16:42;92103.34;;;-10.15;82.78
85119;BME280;75469;47.654;10.494;2024-01-11T04:19:09;92108.63;;;-10.21;82.65
85119;BME280;75469;47.654;10.494;2024-01-11T04:21:34;92110.59;;;-10.28;82.53
85119;BME280;75469;47.654;10.494;2024-01-11T04:24:00;92108.56;;;-10.26;82.79
85119;BME280;75469;47.654;10.494;2024-01-11T04:26:26;92106.06;;;-10.21;82.41
85119;BME280;75469;47.654;10.494;2024-01-11T04:28:52;92111.19;;;-10.21;82.63
85119;BME280;75469;47.654;10.494;2024-01-11T04:31:18;92119.06;;;-10.23;82.72
85119;BME280;75469;47.654;10.494;2024-01-11T04:33:45;92115.84;;;-10.18;82.72
85119;BME280;75469;47.654;10.494;2024-01-11T04:36:12;92113.53;;;-10.03;83.31
85119;BME280;75469;47.654;10.494;2024-01-11T04:38:38;92110.88;;;-10.25;82.13
85119;BME280;75469;47.654;10.494;2024-01-11T04:41:13;92104.41;;;-10.44;81.34
85119;BME280;75469;47.654;10.494;2024-01-11T04:43:43;92111.97;;;-10.38;82.39
85119;BME280;75469;47.654;10.494;2024-01-11T04:46:27;92107.50;;;-10.42;81.93
85119;BME280;75469;47.654;10.494;2024-01-11T04:48:53;92102.44;;;-10.54;82.38
85119;BME280;75469;47.654;10.494;2024-01-11T04:51:19;92106.00;;;-10.55;82.79
85119;BME280;75469;47.654;10.494;2024-01-11T04:53:45;92103.16;;;-10.42;83.58
85119;BME280;75469;47.654;10.494;2024-01-11T04:56:13;92100.09;;;-10.44;83.60
85119;BME280;75469;47.654;10.494;2024-01-11T04:58:41;92094.84;;;-10.37;84.20
85119;BME280;75469;47.654;10.494;2024-01-11T05:01:07;92089.84;;;-10.44;84.55
85119;BME280;75469;47.654;10.494;2024-01-11T05:03:33;92095.91;;;-10.33;85.27
85119;BME280;75469;47.654;10.494;2024-01-11T05:05:59;92102.13;;;-10.29;85.26
85119;BME280;75469;47.654;10.494;2024-01-11T05:08:26;92096.00;;;-10.28;84.89
85119;BME280;75469;47.654;10.494;2024-01-11T05:10:51;92090.94;;;-10.40;84.05
85119;BME280;75469;47.654;10.494;2024-01-11T05:13:18;92088.88;;;-10.54;83.58
85119;BME280;75469;47.654;10.494;2024-01-11T05:15:44;92090.34;;;-10.58;83.78
85119;BME280;75469;47.654;10.494;2024-01-11T05:18:09;92086.66;;;-10.51;84.42
85119;BME280;75469;47.654;10.494;2024-01-11T05:20:36;92082.50;;;-10.23;85.50
85119;BME280;75469;47.654;10.494;2024-01-11T05:23:02;92083.84;;;-10.04;84.49
85119;BME280;75469;47.654;10.494;2024-01-11T05:25:27;92091.91;;;-10.12;84.00
85119;BME280;75469;47.654;10.494;2024-01-11T05:27:53;92082.53;;;-10.06;83.08
85119;BME280;75469;47.654;10.494;2024-01-11T05:30:18;92088.19;;;-10.04;82.39
85119;BME280;75469;47.654;10.494;2024-01-11T05:32:44;92091.41;;;-10.26;82.57
85119;BME280;75469;47.654;10.494;2024-01-11T05:35:09;92094.97;;;-10.44;82.41
85119;BME280;75469;47.654;10.494;2024-01-11T05:37:36;92102.03;;;-10.63;81.40
85119;BME280;75469;47.654;10.494;2024-01-11T05:40:02;92102.34;;;-10.59;81.81
85119;BME280;75469;47.654;10.494;2024-01-11T05:42:28;92100.94;;;-10.67;81.69
85119;BME280;75469;47.654;10.494;2024-01-11T05:44:53;92105.81;;;-10.65;82.76
85119;BME280;75469;47.654;10.494;2024-01-11T05:47:19;92098.50;;;-10.73;82.38
85119;BME280;75469;47.654;10.494;2024-01-11T05:49:44;92109.25;;;-10.71;82.04
85119;BME280;75469;47.654;10.494;2024-01-11T05:52:10;92105.97;;;-10.84;81.65
85119;BME280;75469;47.654;10.494;2024-01-11T05:54:36;92114.97;;;-10.81;82.31
85119;BME280;75469;47.654;10.494;2024-01-11T05:57:02;92122.38;;;-10.68;82.56
85119;BME280;75469;47.654;10.494;2024-01-11T05:59:28;92124.94;;;-10.39;82.82
85119;BME280;75469;47.654;10.494;2024-01-11T06:01:53;92109.66;;;-10.51;81.32
85119;BME280;75469;47.654;10.494;2024-01-11T06:04:19;92115.19;;;-10.71;81.59
85119;BME280;75469;47.654;10.494;2024-01-11T06:06:44;92121.97;;;-10.76;82.15
85119;BME280;75469;47.654;10.494;2024-01-11T06:09:10;92121.63;;;-10.40;82.27
85119;BME280;75469;47.654;10.494;2024-01-11T06:11:35;92125.19;;;-10.24;82.38
85119;BME280;75469;47.654;10.494;2024-01-11T06:14:01;92124.91;;;-10.27;82.37
85119;BME280;75469;47.654;10.494;2024-01-11T06:16:28;92126.38;;;-10.31;83.32
85119;BME280;75469;47.654;10.494;2024-01-11T06:18:53;92130.66;;;-10.49;81.79
85119;BME280;75469;47.654;10.494;2024-01-11T06:21:19;92131.03;;;-10.69;80.15
85119;BME280;75469;47.654;10.494;2024-01-11T06:23:44;92129.84;;;-10.90;80.00
85119;BME280;75469;47.654;10.494;2024-01-11T06:26:10;92135.34;;;-11.10;79.66
85119;BME280;75469;47.654;10.494;2024-01-11T06:28:36;92143.84;;;-10.92;82.10
85119;BME280;75469;47.654;10.494;2024-01-11T06:31:01;92147.44;;;-11.17;80.62
85119;BME280;75469;47.654;10.494;2024-01-11T06:33:27;92155.63;;;-11.62;79.06
85119;BME280;75469;47.654;10.494;2024-01-11T06:35:53;92158.88;;;-11.43;81.05
85119;BME280;75469;47.654;10.494;2024-01-11T06:38:19;92161.09;;;-11.35;82.25
85119;BME280;75469;47.654;10.494;2024-01-11T06:40:44;92153.66;;;-11.13;83.61
85119;BME280;75469;47.654;10.494;2024-01-11T06:43:10;92153.41;;;-10.99;83.37
85119;BME280;75469;47.654;10.494;2024-01-11T06:45:36;92157.44;;;-11.03;82.01
85119;BME280;75469;47.654;10.494;2024-01-11T06:48:02;92165.31;;;-11.29;80.73
85119;BME280;75469;47.654;10.494;2024-01-11T06:50:28;92164.53;;;-11.41;81.45
85119;BME280;75469;47.654;10.494;2024-01-11T06:52:54;92168.63;;;-11.52;81.91
85119;BME280;75469;47.654;10.494;2024-01-11T06:55:19;92169.06;;;-11.55;81.55
85119;BME280;75469;47.654;10.494;2024-01-11T06:57:48;92177.63;;;-11.49;81.78
85119;BME280;75469;47.654;10.494;2024-01-11T07:00:13;92182.63;;;-11.31;81.60
85119;BME280;75469;47.654;10.494;2024-01-11T07:02:39;92176.09;;;-11.15;81.04
85119;BME280;75469;47.654;10.494;2024-01-11T07:05:07;92184.41;;;-11.08;80.16
85119;BME280;75469;47.654;10.494;2024-01-11T07:07:33;92192.41;;;-11.27;79.96
85119;BME280;75469;47.654;10.494;2024-01-11T07:09:59;92190.94;;;-11.47;79.98
85119;BME280;75469;47.654;10.494;2024-01-11T07:12:24;92194.91;;;-11.63;79.52
85119;BME280;75469;47.654;10.494;2024-01-11T07:14:51;92196.56;;;-11.57;80.94
85119;BME280;75469;47.654;10.494;2024-01-11T07:17:17;92203.09;;;-11.72;80.84
85119;BME280;75469;47.654;10.494;2024-01-11T07:19:42;92197.22;;;-11.85;81.98
85119;BME280;75469;47.654;10.494;2024-01-11T07:22:08;92204.59;;;-11.83;81.98
85119;BME280;75469;47.654;10.494;2024-01-11T07:24:34;92212.00;;;-11.63;79.74
85119;BME280;75469;47.654;10.494;2024-01-11T07:27:06;92203.38;;;-10.68;80.25
85119;BME280;75469;47.654;10.494;2024-01-11T07:29:33;92198.03;;;-9.69;76.93
85119;BME280;75469;47.654;10.494;2024-01-11T07:31:59;92200.13;;;-8.82;75.63
85119;BME280;75469;47.654;10.494;2024-01-11T07:34:24;92198.69;;;-7.36;75.36
85119;BME280;75469;47.654;10.494;2024-01-11T07:36:52;92193.56;;;-6.98;71.21
85119;BME280;75469;47.654;10.494;2024-01-11T07:39:18;92197.16;;;-6.09;70.78
85119;BME280;75469;47.654;10.494;2024-01-11T07:41:43;92195.00;;;-5.34;67.30
85119;BME280;75469;47.654;10.494;2024-01-11T07:44:09;92200.44;;;-5.25;64.98
85119;BME280;75469;47.654;10.494;2024-01-11T07:46:34;92202.25;;;-4.75;62.41
85119;BME280;75469;47.654;10.494;2024-01-11T07:49:05;92199.41;;;-3.73;62.09
85119;BME280;75469;47.654;10.494;2024-01-11T07:51:30;92198.19;;;-3.41;56.84
85119;BME280;75469;47.654;10.494;2024-01-11T07:53:56;92199.56;;;-2.75;57.39
85119;BME280;75469;47.654;10.494;2024-01-11T07:56:21;92194.91;;;-1.72;56.16
85119;BME280;75469;47.654;10.494;2024-01-11T07:58:47;92186.75;;;-2.08;54.99
85119;BME280;75469;47.654;10.494;2024-01-11T08:01:15;92189.25;;;-1.74;51.72
85119;BME280;75469;47.654;10.494;2024-01-11T08:03:41;92185.25;;;-1.66;53.59
85119;BME280;75469;47.654;10.494;2024-01-11T08:06:07;92192.00;;;-1.46;51.26
85119;BME280;75469;47.654;10.494;2024-01-11T08:08:34;92181.28;;;-1.40;50.97
85119;BME280;75469;47.654;10.494;2024-01-11T08:10:59;92182.13;;;-0.27;46.71
85119;BME280;75469;47.654;10.494;2024-01-11T08:13:25;92188.34;;;-0.56;46.70
85119;BME280;75469;47.654;10.494;2024-01-11T08:15:50;92190.97;;;-1.69;48.17
85119;BME280;75469;47.654;10.494;2024-01-11T08:18:18;92202.56;;;-2.04;48.93
85119;BME280;75469;47.654;10.494;2024-01-11T08:20:44;92203.09;;;-2.66;49.16
85119;BME280;75469;47.654;10.494;2024-01-11T08:23:09;92205.06;;;-2.23;50.17
85119;BME280;75469;47.654;10.494;2024-01-11T08:25:35;92200.47;;;-1.03;49.34
85119;BME280;75469;47.654;10.494;2024-01-11T08:28:01;92198.66;;;0.37;45.95
85119;BME280;75469;47.654;10.494;2024-01-11T08:30:28;92208.03;;;-0.68;45.04
85119;BME280;75469;47.654;10.494;2024-01-11T08:32:54;92213.53;;;-1.27;46.58
85119;BME280;75469;47.654;10.494;2024-01-11T08:35:21;92219.38;;;-1.16;46.47
85119;BME280;75469;47.654;10.494;2024-01-11T08:37:47;92218.78;;;-0.94;47.50
85119;BME280;75469;47.654;10.494;2024-01-11T08:40:13;92233.34;;;0.19;41.80
85119;BME280;75469;47.654;10.494;2024-01-11T08:42:41;92239.81;;;-1.76;46.45
85119;BME280;75469;47.654;10.494;2024-01-11T08:45:08;92241.22;;;-2.71;47.23
85119;BME280;75469;47.654;10.494;2024-01-11T08:47:34;92233.06;;;-2.55;48.03
85119;BME280;75469;47.654;10.494;2024-01-11T08:50:01;92241.66;;;-1.34;46.21
85119;BME280;75469;47.654;10.494;2024-01-11T08:52:26;92230.91;;;-1.46;47.27
85119;BME280;75469;47.654;10.494;2024-01-11T08:54:52;92234.19;;;-0.46;43.96
85119;BME280;75469;47.654;10.494;2024-01-11T08:57:17;92235.41;;;-1.33;46.09
85119;BME280;75469;47.654;10.494;2024-01-11T08:59:43;92233.34;;;-0.60;45.34
85119;BME280;75469;47.654;10.494;2024-01-11T09:02:09;92228.66;;;-1.53;45.61
85119;BME280;75469;47.654;10.494;2024-01-11T09:04:36;92227.50;;;-1.66;47.14
85119;BME280;75469;47.654;10.494;2024-01-11T09:07:02;92241.41;;;0.45;45.24
85119;BME280;75469;47.654;10.494;2024-01-11T09:09:27;92240.44;;;-0.14;43.54
85119;BME280;75469;47.654;10.494;2024-01-11T09:11:53;92231.06;;;-1.19;45.43
85119;BME280;75469;47.654;10.494;2024-01-11T09:14:18;92236.53;;;-0.82;45.46
85119;BME280;75469;47.654;10.494;2024-01-11T09:16:44;92236.06;;;-0.52;44.91
85119;BME280;75469;47.654;10.494;2024-01-11T09:19:11;92231.69;;;-0.05;42.06
85119;BME280;75469;47.654;10.494;2024-01-11T09:21:37;92228.94;;;-0.60;43.19
85119;BME280;75469;47.654;10.494;2024-01-11T09:24:03;92244.56;;;-0.98;43.79
85119;BME280;75469;47.654;10.494;2024-01-11T09:26:28;92247.31;;;-2.57;48.33
85119;BME280;75469;47.654;10.494;2024-01-11T09:28:54;92250.06;;;-2.43;49.81
85119;BME280;75469;47.654;10.494;2024-01-11T09:31:19;92253.03;;;-1.54;47.78
85119;BME280;75469;47.654;10.494;2024-01-11T09:33:45;92251.66;;;-0.52;43.18
85119;BME280;75469;47.654;10.494;2024-01-11T09:36:12;92249.50;;;-1.39;46.61
85119;BME280;75469;47.654;10.494;2024-01-11T09:38:38;92241.81;;;-1.25;47.59
85119;BME280;75469;47.654;10.494;2024-01-11T09:41:12;92241.13;;;0.05;46.57
85119;BME280;75469;47.654;10.494;2024-01-11T09:43:40;92246.78;;;1.26;43.78
85119;BME280;75469;47.654;10.494;2024-01-11T09:46:06;92254.16;;;0.33;43.96
85119;BME280;75469;47.654;10.494;2024-01-11T09:48:33;92264.16;;;-0.35;46.03
85119;BME280;75469;47.654;10.494;2024-01-11T09:51:01;92256.47;;;0.62;42.84
85119;BME280;75469;47.654;10.494;2024-01-11T09:53:29;92259.56;;;0.36;41.23
85119;BME280;75469;47.654;10.494;2024-01-11T09:55:58;92257.00;;;-1.56;45.51
85119;BME280;75469;47.654;10.494;2024-01-11T09:58:23;92259.63;;;-3.12;50.85
85119;BME280;75469;47.654;10.494;2024-01-11T10:00:54;92271.16;;;-2.94;52.22
85119;BME280;75469;47.654;10.494;2024-01-11T10:03:23;92275.50;;;-2.90;51.21
85119;BME280;75469;47.654;10.494;2024-01-11T10:05:50;92283.13;;;-3.04;53.18
85119;BME280;75469;47.654;10.494;2024-01-11T10:08:21;92295.50;;;-3.01;53.19
85119;BME280;75469;47.654;10.494;2024-01-11T10:10:47;92299.56;;;-2.50;51.46
85119;BME280;75469;47.654;10.494;2024-01-11T10:13:14;92298.41;;;-3.72;53.83
85119;BME280;75469;47.654;10.494;2024-01-11T10:15:39;92298.50;;;-4.79;56.49
85119;BME280;75469;47.654;10.494;2024-01-11T10:18:05;92305.63;;;-5.28;58.34
85119;BME280;75469;47.654;10.494;2024-01-11T10:20:31;92298.53;;;-5.68;61.01
85119;BME280;75469;47.654;10.494;2024-01-11T10:22:58;92296.53;;;-5.56;61.96
85119;BME280;75469;47.654;10.494;2024-01-11T10:25:24;92296.38;;;-5.03;61.14
85119;BME280;75469;47.654;10.494;2024-01-11T10:27:50;92294.91;;;-4.63;59.22
85119;BME280;75469;47.654;10.494;2024-01-11T10:30:16;92292.44;;;-5.36;61.62
85119;BME280;75469;47.654;10.494;2024-01-11T10:32:43;92292.66;;;-6.11;64.44
85119;BME280;75469;47.654;10.494;2024-01-11T10:35:09;92302.56;;;-5.19;63.77
85119;BME280;75469;47.654;10.494;2024-01-11T10:37:36;92309.09;;;-4.81;60.72
85119;BME280;75469;47.654;10.494;2024-01-11T10:40:06;92305.66;;;-5.12;61.77
85119;BME280;75469;47.654;10.494;2024-01-11T10:42:42;92293.72;;;-5.44;61.60
85119;BME280;75469;47.654;10.494;2024-01-11T10:45:19;92288.16;;;-5.78;62.95
85119;BME280;75469;47.654;10.494;2024-01-11T10:47:54;92288.09;;;-6.04;65.95
85119;BME280;75469;47.654;10.494;2024-01-11T10:50:22;92284.50;;;-5.09;64.91
85119;BME280;75469;47.654;10.494;2024-01-11T10:53:03;92270.25;;;-5.53;65.43
85119;BME280;75469;47.654;10.494;2024-01-11T10:55:34;92253.56;;;-4.32;62.48
85119;BME280;75469;47.654;10.494;2024-01-11T10:58:01;92249.19;;;-4.37;62.45
85119;BME280;75469;47.654;10.494;2024-01-11T11:00:28;92251.25;;;-4.49;62.07
85119;BME280;75469;47.654;10.494;2024-01-11T11:02:55;92241.72;;;-5.10;65.12
85119;BME280;75469;47.654;10.494;2024-01-11T11:05:21;92238.34;;;-4.54;64.36
85119;BME280;75469;47.654;10.494;2024-01-11T11:07:49;92239.88;;;-4.18;61.62
85119;BME280;75469;47.654;10.494;2024-01-11T11:10:17;92231.66;;;-4.55;63.62
85119;BME280;75469;47.654;10.494;2024-01-11T11:12:45;92218.19;;;-4.32;63.31
85119;BME280;75469;47.654;10.494;2024-01-11T11:15:12;92211.28;;;-4.67;63.85
85119;BME280;75469;47.654;10.494;2024-01-11T11:17:39;92200.69;;;-4.71;64.90
85119;BME280;75469;47.654;10.494;2024-01-11T11:20:06;92197.09;;;-5.26;66.61
85119;BME280;75469;47.654;10.494;2024-01-11T11:22:34;92196.97;;;-4.08;66.17
85119;BME280;75469;47.654;10.494;2024-01-11T11:25:03;92185.88;;;-3.15;63.13
85119;BME280;75469;47.654;10.494;2024-01-11T11:27:31;92174.13;;;-3.36;61.40
85119;BME280;75469;47.654;10.494;2024-01-11T11:29:56;92170.06;;;-3.08;62.70
85119;BME280;75469;47.654;10.494;2024-01-11T11:32:43;92172.53;;;-4.52;63.14
85119;BME280;75469;47.654;10.494;2024-01-11T11:35:08;92172.97;;;-4.19;64.73
85119;BME280;75469;47.654;10.494;2024-01-11T11:37:37;92166.78;;;-4.28;64.89
85119;BME280;75469;47.654;10.494;2024-01-11T11:40:10;92155.22;;;-4.46;65.74
85119;BME280;75469;47.654;10.494;2024-01-11T11:42:39;92154.53;;;-4.93;65.57
85119;BME280;75469;47.654;10.494;2024-01-11T11:45:06;92154.53;;;-4.77;66.98
85119;BME280;75469;47.654;10.494;2024-01-11T11:47:36;92171.69;;;-4.22;65.57
85119;BME280;75469;47.654;10.494;2024-01-11T11:50:09;92151.91;;;-3.82;64.65
85119;BME280;75469;47.654;10.494;2024-01-11T11:52:40;92148.19;;;-3.26;64.61
85119;BME280;75469;47.654;10.494;2024-01-11T11:55:08;92149.34;;;-3.08;63.11
85119;BME280;75469;47.654;10.494;2024-01-11T11:57:35;92152.81;;;-3.23;64.56
85119;BME280;75469;47.654;10.494;2024-01-11T12:00:01;92150.63;;;-3.40;64.33
85119;BME280;75469;47.654;10.494;2024-01-11T12:02:36;92152.81;;;-3.23;63.70
85119;BME280;75469;47.654;10.494;2024-01-11T12:05:02;92148.22;;;-3.31;65.96
85119;BME280;75469;47.654;10.494;2024-01-11T12:07:29;92142.41;;;-3.13;65.48
85119;BME280;75469;47.654;10.494;2024-01-11T12:09:55;92141.66;;;-2.55;64.84
85119;BME280;75469;47.654;10.494;2024-01-11T12:12:21;92143.16;;;-2.25;63.69
85119;BME280;75469;47.654;10.494;2024-01-11T12:14:47;92156.28;;;-2.16;63.87
85119;BME280;75469;47.654;10.494;2024-01-11T12:17:14;92162.22;;;-2.16;63.11
85119;BME280;75469;47.654;10.494;2024-01-11T12:19:39;92156.53;;;-2.42;64.24
85119;BME280;75469;47.654;10.494;2024-01-11T12:22:05;92169.78;;;-2.72;64.27
85119;BME280;75469;47.654;10.494;2024-01-11T12:24:31;92170.97;;;-2.36;65.64
85119;BME280;75469;47.654;10.494;2024-01-11T12:26:59;92173.72;;;-2.80;64.23
85119;BME280;75469;47.654;10.494;2024-01-11T12:29:25;92185.81;;;-3.05;64.37
85119;BME280;75469;47.654;10.494;2024-01-11T12:31:51;92188.81;;;-3.27;66.61
85119;BME280;75469;47.654;10.494;2024-01-11T12:34:17;92192.72;;;-3.34;66.87
85119;BME280;75469;47.654;10.494;2024-01-11T12:36:42;92201.03;;;-3.97;67.90
85119;BME280;75469;47.654;10.494;2024-01-11T12:39:10;92214.28;;;-4.24;69.26
85119;BME280;75469;47.654;10.494;2024-01-11T12:41:39;92219.00;;;-5.13;72.23
85119;BME280;75469;47.654;10.494;2024-01-11T12:44:04;92223.38;;;-5.29;73.34